Time;durP1;ratioP1;P1;durP2;ratioP2;P2;SDS_P1;SDS_P2;PMS_P1;PMS_P2;Temp;Humidity;BMP_temperature;BMP_pressure;BME280_temperature;BME280_humidity;BME280_pressure;Samples;Min_cycle;Max_cycle;Signal;HPM_P1;HPM_P2
2021/03/27 00:03:59;;;;;;;1999.90;999.90;;;;;;;8.44;68.21;100900.81;15731402;23;20056;-70
2021/03/27 00:11:39;;;;;;;1999.90;999.90;;;;;;;8.37;68.04;100890.97;15775896;28;20492;-70
2021/03/27 00:19:46;;;;;;;1999.90;999.90;;;;;;;8.26;67.97;100872.03;15732142;22;20492;-83
2021/03/27 00:28:06;;;;;;;1999.90;999.90;;;;;;;8.23;68.22;100867.94;15737615;28;20048;-83
2021/03/27 00:36:28;;;;;;;;;;;;;;;;;;;;;
2021/03/27 00:44:14;;;;;;;1999.90;999.90;;;;;;;8.63;69.08;100843.88;15675662;28;20071;-84
2021/03/27 01:02:27;;;;;;;;;;;;;;;;;;;;;
2021/03/27 01:11:33;;;;;;;1999.90;999.90;;;;;;;9.38;67.40;100807.91;15562971;28;20051;-82
2021/03/27 01:29:02;;;;;;;1999.90;999.90;;;;;;;9.03;66.98;100752.09;15588964;28;20082;-84
2021/03/27 01:38:01;;;;;;;1999.90;999.90;;;;;;;9.15;66.26;100782.94;15725884;28;20033;-84
2021/03/27 01:46:46;;;;;;;1999.90;999.90;;;;;;;8.80;67.85;100726.31;15634185;28;20045;-84
2021/03/27 01:54:57;;;;;;;1999.90;999.90;;;;;;;8.74;67.11;100738.72;15642645;28;20040;-86
2021/03/27 02:11:23;;;;;;;1999.90;999.90;;;;;;;8.43;68.06;100740.66;15735883;28;20108;-84
2021/03/27 02:19:35;;;;;;;1999.90;999.90;;;;;;;8.40;69.39;100708.78;15762239;28;20052;-83
2021/03/27 02:36:51;;;;;;;;;;;;;;;8.84;68.60;100741.22;15714255;28;20052;-82
2021/03/27 02:45:14;;;;;;;1999.90;999.90;;;;;;;8.64;68.38;100733.44;15534784;23;19924;-61
2021/03/27 02:53:00;;;;;;;1999.90;999.90;;;;;;;8.81;68.36;100739.09;15737978;28;20047;-61
2021/03/27 03:00:42;;;;;;;1999.90;999.90;;;;;;;9.02;67.71;100724.59;15750242;23;20048;-61
2021/03/27 03:08:24;;;;;;;1999.90;999.90;;;;;;;9.05;67.63;100716.41;15735943;28;20043;-63
2021/03/27 03:16:05;;;;;;;1999.90;999.90;;;;;;;9.11;67.28;100725.44;15818847;28;20044;-61
2021/03/27 03:23:45;;;;;;;1999.90;999.90;;;;;;;9.40;66.65;100719.31;15801006;28;20376;-58
2021/03/27 03:31:35;;;;;;;1999.90;999.90;;;;;;;9.35;66.64;100708.28;15800059;28;20127;-59
2021/03/27 03:39:22;;;;;;;1999.90;999.90;;;;;;;9.35;66.59;100717.47;15817638;28;20113;-60
2021/03/27 03:47:05;;;;;;;1999.90;999.90;;;;;;;9.42;66.37;100703.91;15799284;28;20443;-59
2021/03/27 03:54:49;;;;;;;1999.90;999.90;;;;;;;9.46;66.05;100682.59;15817360;28;20566;-60
2021/03/27 04:02:26;;;;;;;1999.90;999.90;;;;;;;9.28;66.98;100689.31;15798258;28;20040;-62
2021/03/27 04:10:02;;;;;;;1999.90;999.90;;;;;;;9.29;66.88;100695.69;15798645;28;20044;-60
2021/03/27 04:17:42;;;;;;;1999.90;999.90;;;;;;;9.47;66.43;100709.28;15798256;28;20040;-61
2021/03/27 04:25:35;;;;;;;1999.90;999.90;;;;;;;9.36;66.84;100702.41;15787550;28;20492;-61
2021/03/27 04:33:13;;;;;;;1999.90;999.90;;;;;;;9.17;67.05;100699.94;15788822;28;20059;-62
2021/03/27 04:40:51;;;;;;;1999.90;999.90;;;;;;;9.05;67.05;100699.72;15787591;28;20400;-60
2021/03/27 04:48:33;;;;;;;1999.90;999.90;;;;;;;9.02;66.49;100691.19;15787905;28;20049;-57
2021/03/27 04:56:12;;;;;;;1999.90;999.90;;;;;;;9.00;67.21;100683.16;15786859;28;20043;-60
2021/03/27 05:03:53;;;;;;;1999.90;999.90;;;;;;;9.28;66.42;100692.09;15781398;28;20083;-58
2021/03/27 05:11:38;;;;;;;1999.90;999.90;;;;;;;9.34;65.99;100676.84;15784881;28;20044;-62
2021/03/27 05:19:13;;;;;;;1999.90;999.90;;;;;;;9.54;65.87;100684.56;15761073;28;20048;-60
2021/03/27 05:26:56;;;;;;;1999.90;999.90;;;;;;;9.74;65.42;100680.31;15784243;28;20211;-59
2021/03/27 05:34:33;;;;;;;1999.90;999.90;;;;;;;9.96;64.82;100687.66;15801460;28;20337;-59
2021/03/27 05:42:30;;;;;;;1999.90;999.90;;;;;;;10.07;64.45;100685.38;15783741;28;20305;-62
2021/03/27 05:50:23;;;;;;;1999.90;999.90;;;;;;;10.28;64.57;100679.94;15782309;28;20036;-61
2021/03/27 05:58:18;;;;;;;1999.90;999.90;;;;;;;10.39;63.92;100673.66;15782377;28;20555;-61
2021/03/27 06:06:26;;;;;;;1999.90;999.90;;;;;;;10.45;63.97;100665.13;15781831;28;20055;-61
2021/03/27 06:14:42;;;;;;;1999.90;999.90;;;;;;;10.51;63.84;100667.38;15780459;28;20618;-59
2021/03/27 06:22:23;;;;;;;1999.90;999.90;;;;;;;10.61;63.65;100650.28;15775326;28;20051;-62
2021/03/27 06:30:21;;;;;;;1999.90;999.90;;;;;;;11.07;62.63;100645.78;15779929;28;20484;-58
2021/03/27 06:38:24;;;;;;;1999.90;999.90;;;;;;;12.09;59.52;100650.91;15742758;28;20071;-62
2021/03/27 06:46:04;;;;;;;1999.90;999.90;;;;;;;11.69;60.91;100631.03;15776709;28;20044;-60
2021/03/27 06:54:02;;;;;;;1999.90;999.90;;;;;;;12.02;60.69;100655.41;15786568;28;20691;-62
2021/03/27 07:02:12;;;;;;;1999.90;999.90;;;;;;;11.68;61.93;100712.44;15793753;28;20052;-64
2021/03/27 07:10:07;;;;;;;1999.90;999.90;;;;;;;10.74;67.32;100737.75;15777587;28;20040;-61
2021/03/27 07:17:48;;;;;;;1999.90;999.90;;;;;;;10.39;72.16;100748.97;15777552;28;20067;-60
2021/03/27 07:25:42;;;;;;;1999.90;999.90;;;;;;;10.33;73.87;100721.63;15778233;28;20097;-61
2021/03/27 07:33:31;;;;;;;1999.90;999.90;;;;;;;10.61;74.26;100706.09;15761598;28;20105;-60
2021/03/27 07:41:22;;;;;;;1999.90;999.90;;;;;;;10.65;74.47;100734.97;15760986;28;20464;-62
2021/03/27 07:49:23;;;;;;;1999.90;999.90;;;;;;;10.28;75.23;100786.75;15776982;28;20059;-63
2021/03/27 07:57:11;;;;;;;1999.90;999.90;;;;;;;10.37;75.67;100823.00;15757306;28;20059;-61
2021/03/27 08:05:02;;;;;;;1999.90;999.90;;;;;;;9.46;73.98;100849.72;15788299;28;20043;-62
2021/03/27 08:13:05;;;;;;;1999.90;999.90;;;;;;;9.19;73.75;100922.34;15789101;28;20106;-58
2021/03/27 08:20:59;;;;;;;1999.90;999.90;;;;;;;8.99;72.94;100945.94;15755577;28;20052;-61
2021/03/27 08:29:11;;;;;;;1999.90;999.90;;;;;;;8.67;72.68;101002.66;15726367;28;20040;-61
2021/03/27 08:37:21;;;;;;;1999.90;999.90;;;;;;;7.92;74.23;101028.97;15617510;28;20399;-58
2021/03/27 08:45:11;;;;;;;1999.90;999.90;;;;;;;8.24;74.47;101055.00;15792912;28;20837;-56
2021/03/27 08:53:09;;;;;;;1999.90;999.90;;;;;;;8.15;73.57;101057.69;15796200;28;20069;-58
2021/03/27 09:01:06;;;;;;;1999.90;999.90;;;;;;;8.27;74.05;101084.97;15784460;28;20493;-62
2021/03/27 09:08:44;;;;;;;1999.90;999.90;;;;;;;8.36;74.37;101097.88;15768733;28;20040;-62
2021/03/27 09:16:40;;;;;;;1999.90;999.90;;;;;;;8.35;75.65;101101.78;15786002;28;20032;-61
2021/03/27 09:24:29;;;;;;;1999.90;999.90;;;;;;;8.62;75.23;101123.19;15784782;28;20040;-57
2021/03/27 09:32:08;;;;;;;1999.90;999.90;;;;;;;8.60;74.32;101119.91;15760855;28;20562;-61
2021/03/27 09:39:50;;;;;;;1999.90;999.90;;;;;;;9.45;73.22;101146.13;15779759;28;20422;-58
2021/03/27 09:47:54;;;;;;;1999.90;999.90;;;;;;;9.78;71.05;101157.03;15773992;28;20161;-56
2021/03/27 09:55:40;;;;;;;1999.90;999.90;;;;;;;9.35;72.19;101163.06;15787616;28;20055;-57
2021/03/27 10:03:17;;;;;;;1999.90;999.90;;;;;;;10.15;68.38;101169.75;15796131;28;20081;-57
2021/03/27 10:10:58;;;;;;;1999.90;999.90;;;;;;;11.12;67.47;101178.19;15778989;28;20211;-54
2021/03/27 10:18:36;;;;;;;1999.90;999.90;;;;;;;13.35;61.20;101180.00;15798211;28;20444;-60
2021/03/27 10:26:25;;;;;;;1999.90;999.90;;;;;;;15.31;53.03;101188.56;15781569;28;20524;-61
2021/03/27 10:34:17;;;;;;;1999.90;999.90;;;;;;;15.46;51.04;101191.84;15780671;28;20445;-55
2021/03/27 10:42:16;;;;;;;1999.90;999.90;;;;;;;12.06;60.35;101215.75;15779887;28;20055;-61
2021/03/27 10:49:56;;;;;;;1999.90;999.90;;;;;;;11.06;65.57;101224.19;15778860;28;20072;-61
2021/03/27 10:58:10;;;;;;;1999.90;999.90;;;;;;;13.92;57.82;101250.31;15796093;28;20040;-58
2021/03/27 11:06:06;;;;;;;1999.90;999.90;;;;;;;15.03;51.80;101229.84;15756874;28;20044;-58
2021/03/27 11:14:10;;;;;;;1999.90;999.90;;;;;;;14.62;45.25;101247.69;15780614;28;20419;-56
2021/03/27 11:22:10;;;;;;;1999.90;999.90;;;;;;;15.74;44.00;101262.25;15779696;28;20414;-56
2021/03/27 11:29:50;;;;;;;1999.90;999.90;;;;;;;13.40;44.84;101277.91;15781844;28;20518;-60
2021/03/27 11:37:40;;;;;;;1999.90;999.90;;;;;;;14.00;43.75;101271.06;15767075;28;20071;-59
2021/03/27 11:45:15;;;;;;;1999.90;999.90;;;;;;;13.26;44.22;101266.94;15761639;28;20063;-61
2021/03/27 11:52:58;;;;;;;1999.90;999.90;;;;;;;12.99;45.87;101268.19;15807188;28;20044;-62
2021/03/27 12:08:38;;;;;;;1999.90;999.90;;;;;;;18.63;35.11;101264.66;15802239;28;20528;-61
2021/03/27 12:16:19;;;;;;;1999.90;999.90;;;;;;;14.90;38.43;101247.84;15767567;28;20052;-61
2021/03/27 12:23:59;;;;;;;1999.90;999.90;;;;;;;13.81;40.11;101255.53;15769891;28;20048;-61
2021/03/27 12:31:45;;;;;;;1999.90;999.90;;;;;;;14.30;41.38;101263.34;15750349;28;20044;-61
2021/03/27 12:39:35;;;;;;;1999.90;999.90;;;;;;;13.96;40.00;101258.84;15773874;28;20036;-61
2021/03/27 12:47:20;;;;;;;1999.90;999.90;;;;;;;13.61;41.61;101305.97;15738449;28;20051;-59
2021/03/27 12:55:01;;;;;;;1999.90;999.90;;;;;;;10.35;58.43;101361.72;15785505;28;20449;-58
2021/03/27 13:03:06;;;;;;;1999.90;999.90;;;;;;;10.48;62.29;101365.56;15802999;28;20075;-56
2021/03/27 13:11:08;;;;;;;1999.90;999.90;;;;;;;9.54;63.99;101375.47;15767675;28;20048;-57
2021/03/27 13:18:49;;;;;;;1999.90;999.90;;;;;;;9.99;63.04;101388.72;15783360;28;20441;-58
2021/03/27 13:26:23;;;;;;;1999.90;999.90;;;;;;;9.53;64.41;101418.41;15753160;28;20041;-60
2021/03/27 13:34:06;;;;;;;1999.90;999.90;;;;;;;9.47;62.35;101435.53;15773093;28;20056;-57
2021/03/27 13:42:01;;;;;;;1999.90;999.90;;;;;;;9.13;62.67;101424.75;15765157;28;20108;-57
2021/03/27 13:49:36;;;;;;;1999.90;999.90;;;;;;;9.23;65.91;101430.97;15757161;28;20048;-58
2021/03/27 13:57:20;;;;;;;1999.90;999.90;;;;;;;8.64;65.65;101452.00;15799646;28;20048;-60
2021/03/27 14:05:02;;;;;;;1999.90;999.90;;;;;;;8.68;67.26;101466.16;15780662;28;20059;-61
2021/03/27 14:12:39;;;;;;;1999.90;999.90;;;;;;;8.55;66.65;101473.31;15758652;28;20052;-60
2021/03/27 14:20:28;;;;;;;1999.90;999.90;;;;;;;8.95;66.68;101473.78;15798962;28;20040;-58
2021/03/27 14:28:16;;;;;;;1999.90;999.90;;;;;;;8.86;66.31;101481.19;15800170;28;20044;-58
2021/03/27 14:35:53;;;;;;;1999.90;999.90;;;;;;;8.95;64.18;101496.03;15797372;28;20105;-59
2021/03/27 14:43:41;;;;;;;1999.90;999.90;;;;;;;10.39;62.69;101521.75;15798919;28;20507;-58
2021/03/27 14:51:30;;;;;;;1999.90;999.90;;;;;;;10.47;57.50;101525.78;15798106;28;20068;-57
2021/03/27 14:59:09;;;;;;;1999.90;999.90;;;;;;;10.36;56.45;101525.16;15780568;28;20326;-62
2021/03/27 15:06:45;;;;;;;1999.90;999.90;;;;;;;9.74;57.84;101521.94;15761416;28;20449;-62
2021/03/27 15:14:24;;;;;;;1999.90;999.90;;;;;;;10.02;57.53;101545.09;15762854;28;20461;-62
2021/03/27 15:22:14;;;;;;;1999.90;999.90;;;;;;;10.71;55.92;101536.66;15796627;28;20040;-62
2021/03/27 15:30:03;;;;;;;1999.90;999.90;;;;;;;10.65;54.34;101538.78;15796315;28;20072;-62
2021/03/27 15:37:40;;;;;;;1999.90;999.90;;;;;;;10.02;53.76;101530.34;15795146;28;20037;-63
2021/03/27 15:45:37;;;;;;;1999.90;999.90;;;;;;;10.36;53.50;101532.72;15777785;28;20048;-62
2021/03/27 15:53:19;;;;;;;1999.90;999.90;;;;;;;10.30;51.94;101514.41;15757953;28;20040;-60
2021/03/27 16:00:55;;;;;;;1999.90;999.90;;;;;;;10.38;50.68;101528.47;15777861;28;20375;-61
2021/03/27 16:08:32;;;;;;;1999.90;999.90;;;;;;;10.03;51.16;101559.88;15795134;28;20045;-62
2021/03/27 16:16:27;;;;;;;1999.90;999.90;;;;;;;10.35;51.21;101558.97;15780202;28;20159;-63
2021/03/27 16:24:10;;;;;;;1999.90;999.90;;;;;;;10.37;51.82;101577.03;15807190;28;20083;-63
2021/03/27 16:32:04;;;;;;;1999.90;999.90;;;;;;;8.63;55.51;101610.88;15806084;28;20181;-63
2021/03/27 16:40:02;;;;;;;1999.90;999.90;;;;;;;8.48;55.85;101606.38;15787605;28;20504;-63
2021/03/27 16:47:58;;;;;;;1999.90;999.90;;;;;;;8.19;57.18;101619.47;15768122;28;20135;-63
2021/03/27 16:55:40;;;;;;;1999.90;999.90;;;;;;;7.84;58.08;101642.91;15760818;28;20075;-59
2021/03/27 17:03:15;;;;;;;1999.90;999.90;;;;;;;7.90;57.78;101656.44;15797746;28;20036;-58
2021/03/27 17:11:01;;;;;;;1999.90;999.90;;;;;;;7.49;58.95;101675.41;15802261;28;20459;-57
2021/03/27 17:19:01;;;;;;;1999.90;999.90;;;;;;;8.02;58.33;101695.81;15783540;28;20393;-57
2021/03/27 17:26:43;;;;;;;1999.90;999.90;;;;;;;7.50;61.46;101702.06;15782060;28;20417;-59
2021/03/27 17:34:22;;;;;;;1999.90;999.90;;;;;;;7.63;62.18;101717.28;15784015;28;20063;-58
2021/03/27 17:42:26;;;;;;;1999.90;999.90;;;;;;;7.57;63.17;101726.75;15781230;28;20040;-58
2021/03/27 17:50:06;;;;;;;1999.90;999.90;;;;;;;7.58;63.28;101743.13;15772777;28;20044;-59
2021/03/27 17:57:43;;;;;;;1999.90;999.90;;;;;;;6.90;64.51;101765.97;15800697;28;20036;-60
2021/03/27 18:05:20;;;;;;;1999.90;999.90;;;;;;;6.83;64.54;101765.44;15781727;28;20094;-60
2021/03/27 18:13:01;;;;;;;1999.90;999.90;;;;;;;6.74;64.01;101778.22;15799204;28;20044;-56
2021/03/27 18:21:04;;;;;;;1999.90;999.90;;;;;;;6.86;64.55;101784.28;15798149;28;20040;-61
2021/03/27 18:28:45;;;;;;;1999.90;999.90;;;;;;;6.87;64.67;101796.22;15782679;28;20044;-54
2021/03/27 18:36:23;;;;;;;1999.90;999.90;;;;;;;6.68;64.91;101807.09;15798888;28;20086;-58
2021/03/27 18:44:09;;;;;;;1999.90;999.90;;;;;;;6.82;63.64;101810.94;15796718;28;20048;-63
2021/03/27 18:51:46;;;;;;;1999.90;999.90;;;;;;;6.75;63.78;101832.59;15799372;28;20044;-60
2021/03/27 18:59:22;;;;;;;1999.90;999.90;;;;;;;6.67;63.87;101824.84;15738120;28;20562;-58
2021/03/27 19:06:59;;;;;;;1999.90;999.90;;;;;;;6.51;64.37;101835.13;15759442;28;20068;-61
2021/03/27 19:14:46;;;;;;;1999.90;999.90;;;;;;;6.55;63.89;101840.94;15757471;28;20072;-61
2021/03/27 19:22:23;;;;;;;1999.90;999.90;;;;;;;6.23;64.60;101846.75;15762696;28;20429;-58
2021/03/27 19:30:05;;;;;;;1999.90;999.90;;;;;;;5.90;65.40;101857.25;15797573;28;20092;-60
2021/03/27 19:37:46;;;;;;;1999.90;999.90;;;;;;;5.87;65.90;101868.88;15797049;28;20036;-62
2021/03/27 19:45:37;;;;;;;1999.90;999.90;;;;;;;6.21;65.33;101885.84;15780904;28;20136;-60
2021/03/27 19:53:22;;;;;;;1999.90;999.90;;;;;;;5.91;65.65;101907.97;15804539;28;20369;-60
2021/03/27 20:01:01;;;;;;;1999.90;999.90;;;;;;;5.92;65.69;101921.53;15808945;28;20283;-58
2021/03/27 20:08:43;;;;;;;1999.90;999.90;;;;;;;5.86;66.66;101925.38;15805366;28;20380;-59
2021/03/27 20:16:21;;;;;;;1999.90;999.90;;;;;;;5.53;68.18;101943.25;15789660;28;20130;-61
2021/03/27 20:24:12;;;;;;;1999.90;999.90;;;;;;;5.36;69.30;101948.13;15789295;28;20039;-59
2021/03/27 20:31:50;;;;;;;1999.90;999.90;;;;;;;5.54;68.78;101950.47;15788558;28;20094;-59
2021/03/27 20:39:29;;;;;;;1999.90;999.90;;;;;;;5.36;69.01;101971.13;15806101;28;20046;-61
2021/03/27 20:47:39;;;;;;;1999.90;999.90;;;;;;;5.46;69.07;101978.66;15804955;28;20036;-60
2021/03/27 20:55:22;;;;;;;1999.90;999.90;;;;;;;5.29;69.85;101986.28;15786784;28;20068;-57
2021/03/27 21:03:04;;;;;;;1999.90;999.90;;;;;;;5.59;69.29;102007.78;15769730;28;20044;-60
2021/03/27 21:10:48;;;;;;;1999.90;999.90;;;;;;;5.36;70.32;102020.09;15770284;28;20044;-59
2021/03/27 21:18:25;;;;;;;1999.90;999.90;;;;;;;5.30;69.69;102019.22;15785232;28;20044;-59
2021/03/27 21:26:01;;;;;;;1999.90;999.90;;;;;;;5.36;69.95;102047.78;15802857;28;20051;-63
2021/03/27 21:34:04;;;;;;;1999.90;999.90;;;;;;;5.47;69.92;102050.34;15763121;28;20507;-61
2021/03/27 21:41:49;;;;;;;1999.90;999.90;;;;;;;5.50;69.99;102060.06;15801696;28;20055;-62
2021/03/27 21:49:38;;;;;;;1999.90;999.90;;;;;;;5.26;70.90;102081.75;15800450;28;20048;-63
2021/03/27 21:57:42;;;;;;;1999.90;999.90;;;;;;;5.22;70.93;102078.69;15780314;28;20040;-63
2021/03/27 22:05:16;;;;;;;1999.90;999.90;;;;;;;5.31;70.19;102097.56;15780096;28;20048;-63
2021/03/27 22:13:21;;;;;;;1999.90;999.90;;;;;;;5.23;70.16;102090.59;15763729;28;20101;-63
2021/03/27 22:20:57;;;;;;;1999.90;999.90;;;;;;;5.29;70.08;102102.53;15798827;28;20424;-60
2021/03/27 22:28:40;;;;;;;1999.90;999.90;;;;;;;5.24;69.52;102117.19;15802428;28;20059;-61
2021/03/27 22:36:21;;;;;;;1999.90;999.90;;;;;;;5.08;69.70;102112.59;15781762;28;20056;-61
2021/03/27 22:44:00;;;;;;;1999.90;999.90;;;;;;;5.09;69.60;102125.31;15763593;28;20484;-61
2021/03/27 22:51:38;;;;;;;1999.90;999.90;;;;;;;4.97;70.24;102124.66;15780022;28;20463;-61
2021/03/27 22:59:21;;;;;;;1999.90;999.90;;;;;;;4.96;70.20;102143.19;15797841;28;20071;-60
2021/03/27 23:06:58;;;;;;;1999.90;999.90;;;;;;;4.88;70.94;102146.41;15794985;28;20059;-61
2021/03/27 23:14:33;;;;;;;1999.90;999.90;;;;;;;5.01;70.04;102157.09;15780597;28;20048;-60
2021/03/27 23:22:11;;;;;;;1999.90;999.90;;;;;;;4.91;70.77;102149.50;15797710;28;20118;-60
2021/03/27 23:29:52;;;;;;;1999.90;999.90;;;;;;;4.72;71.07;102166.72;15808119;28;20060;-59
2021/03/27 23:37:48;;;;;;;1999.90;999.90;;;;;;;4.72;70.68;102167.53;15790511;28;20047;-61
2021/03/27 23:45:29;;;;;;;1999.90;999.90;;;;;;;4.68;71.34;102169.13;15806418;28;20472;-62
2021/03/27 23:53:05;;;;;;;1999.90;999.90;;;;;;;4.55;71.61;102175.06;15808244;28;20199;-59
